Terminal Aerodrome Forecast
Issued by NWS Cleveland, OH

Home | Current Version | Previous Version | Graphics & Text | Print | Product List | Glossary Off
Versions: 1 2 3 4 5 6 7 8 9 10 11 12 13 14 15 16 17 18 19 20 21

000
FTUS41 KCLE 281100
TAFCAK
TAF
KCAK 281131Z 2812/2912 VRB03KT 5SM BR SKC
      TEMPO 2812/2814 3SM BR
     FM281500 VRB03KT P6SM FEW250
     FM290000 15006KT P6SM OVC250
     FM291000 15010G18KT P6SM OVC100=

USA.gov is the U.S. government's official web portal to all federal, state and local government web resources and services.